createdAt,value
2022-08-02T00:00:40.760Z,2.33
2022-08-02T00:03:08.889Z,2.00
2022-08-02T00:05:37.250Z,2.35
2022-08-02T00:08:05.904Z,2.20
2022-08-02T00:10:35.197Z,2.40
2022-08-02T00:13:03.226Z,2.30
2022-08-02T00:15:31.287Z,2.30
2022-08-02T00:17:59.317Z,2.30
2022-08-02T00:20:27.255Z,2.40
2022-08-02T00:22:55.167Z,2.47
2022-08-02T00:25:23.296Z,2.30
2022-08-02T00:27:52.594Z,2.13
2022-08-02T00:30:20.653Z,2.28
2022-08-02T00:32:48.581Z,2.25
2022-08-02T00:35:16.577Z,2.00
2022-08-02T00:37:44.589Z,2.00
2022-08-02T00:40:13.513Z,2.15
2022-08-02T00:42:44.056Z,1.98
2022-08-02T00:45:13.469Z,1.95
2022-08-02T00:47:41.427Z,2.35
2022-08-02T00:50:10.688Z,2.13
2022-08-02T00:52:38.639Z,2.30
2022-08-02T00:55:07.722Z,2.20
2022-08-02T00:57:36.979Z,2.38
2022-08-02T01:00:07.469Z,2.45
2022-08-02T01:02:36.801Z,2.28
2022-08-02T01:05:05.601Z,2.28
2022-08-02T01:07:33.846Z,2.55
2022-08-02T01:10:01.911Z,2.10
2022-08-02T01:12:30.131Z,2.38
2022-08-02T01:15:02.448Z,2.58
2022-08-02T01:17:39.578Z,2.35
2022-08-02T01:20:42.644Z,2.13
2022-08-02T01:23:34.005Z,2.80
2022-08-02T01:26:27.135Z,2.20
2022-08-02T01:29:05.084Z,2.25
2022-08-02T01:31:41.599Z,2.60
2022-08-02T01:34:19.609Z,2.13
2022-08-02T01:37:00.945Z,2.22
2022-08-02T01:39:34.587Z,2.67
2022-08-02T01:42:05.354Z,2.50
2022-08-02T01:44:39.476Z,2.65
2022-08-02T01:47:14.808Z,2.33
2022-08-02T01:49:47.406Z,2.17
2022-08-02T01:52:23.633Z,2.90
2022-08-02T01:54:57.709Z,2.20
2022-08-02T01:57:31.616Z,2.45
2022-08-02T02:00:01.867Z,2.25
2022-08-02T02:02:33.034Z,2.70
2022-08-02T02:05:06.618Z,2.83
2022-08-02T02:07:37.210Z,2.67
2022-08-02T02:10:07.422Z,2.83
2022-08-02T02:12:40.349Z,2.88
2022-08-02T02:15:13.833Z,2.80
2022-08-02T02:17:53.004Z,2.97
2022-08-02T02:20:34.756Z,2.50
2022-08-02T02:23:03.089Z,2.60
2022-08-02T02:25:36.138Z,2.58
2022-08-02T02:28:11.877Z,2.67
2022-08-02T02:30:48.385Z,2.40
2022-08-02T02:33:20.215Z,2.50
2022-08-02T02:35:52.665Z,2.75
2022-08-02T02:38:22.325Z,2.85
2022-08-02T02:40:51.425Z,2.78
2022-08-02T02:43:21.056Z,2.55
2022-08-02T02:45:51.285Z,2.83
2022-08-02T02:48:19.682Z,2.58
2022-08-02T02:50:50.007Z,2.63
2022-08-02T02:53:20.422Z,2.65
2022-08-02T02:56:01.629Z,2.15
2022-08-02T02:58:32.111Z,2.45
2022-08-02T03:01:19.826Z,2.33
2022-08-02T03:03:50.022Z,2.47
2022-08-02T03:06:18.189Z,2.28
2022-08-02T03:08:46.915Z,2.40
2022-08-02T03:11:15.562Z,2.10
2022-08-02T03:13:44.153Z,2.40
2022-08-02T03:16:14.225Z,2.55
2022-08-02T03:18:45.333Z,2.25
2022-08-02T03:21:14.855Z,2.67
2022-08-02T03:23:44.519Z,2.78
2022-08-02T03:26:12.647Z,3.05
2022-08-02T03:28:40.597Z,2.40
2022-08-02T03:31:09.228Z,2.50
2022-08-02T03:33:39.029Z,2.60
2022-08-02T03:36:12.406Z,3.40
2022-08-02T03:38:42.460Z,2.83
2022-08-02T03:41:14.813Z,2.40
2022-08-02T03:43:44.678Z,2.72
2022-08-02T03:46:16.640Z,2.80
2022-08-02T03:48:47.017Z,2.67
2022-08-02T03:51:15.357Z,2.63
2022-08-02T03:53:44.101Z,2.50
2022-08-02T03:56:13.191Z,2.33
2022-08-02T03:58:43.614Z,2.13
2022-08-02T04:01:13.719Z,2.70
2022-08-02T04:03:41.726Z,2.33
2022-08-02T04:06:11.070Z,2.67
2022-08-02T04:08:39.172Z,2.55
2022-08-02T04:11:25.505Z,2.65
2022-08-02T04:13:56.731Z,2.33
2022-08-02T04:16:38.749Z,2.80
2022-08-02T04:19:14.781Z,2.58
2022-08-02T04:21:51.126Z,2.67
2022-08-02T04:24:26.010Z,2.60
2022-08-02T04:26:57.867Z,2.97
2022-08-02T04:29:33.193Z,2.70
2022-08-02T04:32:02.560Z,2.63
2022-08-02T04:34:31.880Z,2.58
2022-08-02T04:37:02.000Z,2.63
2022-08-02T04:39:30.026Z,2.45
2022-08-02T04:41:58.126Z,2.78
2022-08-02T04:44:26.614Z,2.95
2022-08-02T04:46:55.822Z,2.92
2022-08-02T04:49:23.818Z,2.72
2022-08-02T04:51:51.799Z,2.60
2022-08-02T04:54:21.136Z,2.85
2022-08-02T04:56:49.201Z,3.15
2022-08-02T04:59:17.207Z,3.08
2022-08-02T05:01:45.160Z,2.83
2022-08-02T05:04:13.159Z,3.30
2022-08-02T05:07:08.963Z,3.22
2022-08-02T05:09:38.443Z,3.30
2022-08-02T05:12:08.406Z,3.45
2022-08-02T05:14:37.731Z,3.47
2022-08-02T05:17:05.666Z,3.45
2022-08-02T05:19:33.629Z,3.50
2022-08-02T05:22:01.650Z,4.15
2022-08-02T05:24:29.710Z,4.07
2022-08-02T05:26:58.981Z,4.13
2022-08-02T05:29:26.912Z,4.70
2022-08-02T05:31:55.297Z,5.32
2022-08-02T05:34:23.259Z,4.93
2022-08-02T05:36:51.665Z,4.75
2022-08-02T05:39:20.589Z,4.28
2022-08-02T05:41:49.234Z,4.45
2022-08-02T05:44:18.517Z,4.43
2022-08-02T05:46:46.696Z,4.68
2022-08-02T05:49:15.801Z,4.53
2022-08-02T05:51:59.198Z,5.53
2022-08-02T05:54:44.034Z,4.78
2022-08-02T05:57:26.044Z,5.40
2022-08-02T06:00:07.249Z,4.85
2022-08-02T06:02:51.279Z,5.18
2022-08-02T06:05:22.708Z,4.82
2022-08-02T06:07:51.296Z,5.05
2022-08-02T06:10:23.439Z,4.80
2022-08-02T06:13:14.431Z,4.95
2022-08-02T06:15:53.253Z,5.18
2022-08-02T06:18:28.450Z,5.15
2022-08-02T06:22:32.696Z,6.35
2022-08-02T06:23:57.793Z,5.70
2022-08-02T06:26:28.613Z,5.85
2022-08-02T06:28:59.077Z,6.18
2022-08-02T06:31:28.385Z,6.28
2022-08-02T06:33:57.552Z,6.22
2022-08-02T06:36:38.506Z,6.18
2022-08-02T06:39:23.344Z,5.63
2022-08-02T06:41:55.594Z,6.57
2022-08-02T06:47:13.883Z,6.57
2022-08-02T06:49:52.569Z,6.78
2022-08-02T06:52:28.365Z,6.70
2022-08-02T06:54:59.406Z,7.88
2022-08-02T06:57:27.762Z,6.45
2022-08-02T06:59:55.787Z,7.32
2022-08-02T07:02:25.425Z,6.35
2022-08-02T07:04:53.636Z,7.10
2022-08-02T07:07:21.892Z,6.82
2022-08-02T07:09:56.666Z,6.95
2022-08-02T07:12:31.665Z,7.25
2022-08-02T07:15:00.387Z,7.15
2022-08-02T07:17:30.259Z,6.50
2022-08-02T07:20:02.177Z,7.53
2022-08-02T07:22:31.114Z,7.43
2022-08-02T07:25:01.034Z,7.95
2022-08-02T07:27:30.111Z,7.28
2022-08-02T07:29:58.877Z,6.45
2022-08-02T07:32:33.157Z,6.72
2022-08-02T07:35:07.007Z,6.78
2022-08-02T07:37:53.151Z,5.90
2022-08-02T07:40:24.882Z,6.07
2022-08-02T07:43:03.077Z,6.13
2022-08-02T07:45:36.009Z,6.32
2022-08-02T07:48:08.418Z,5.88
2022-08-02T07:50:36.843Z,6.18
2022-08-02T07:53:05.048Z,5.63
2022-08-02T07:55:39.064Z,5.68
2022-08-02T07:58:12.781Z,5.63
2022-08-02T08:00:43.731Z,5.80
2022-08-02T08:03:19.550Z,5.45
2022-08-02T08:05:48.451Z,5.35
2022-08-02T08:08:17.652Z,4.72
2022-08-02T08:10:46.320Z,5.03
2022-08-02T08:13:14.573Z,3.70
2022-08-02T08:15:42.634Z,3.65
2022-08-02T08:18:23.154Z,3.67
2022-08-02T08:20:51.766Z,4.20
2022-08-02T08:23:20.046Z,3.70
2022-08-02T08:25:48.359Z,3.38
2022-08-02T08:28:16.455Z,3.30
2022-08-02T08:30:44.585Z,2.92
2022-08-02T08:33:14.159Z,2.67
2022-08-02T08:35:43.882Z,3.17
2022-08-02T08:38:12.242Z,2.40
2022-08-02T08:40:42.054Z,2.65
2022-08-02T08:43:10.151Z,2.65
2022-08-02T08:45:39.094Z,2.90
2022-08-02T08:48:13.754Z,2.92
2022-08-02T08:50:50.959Z,3.10
2022-08-02T08:53:22.377Z,2.90
2022-08-02T08:56:05.236Z,3.00
2022-08-02T08:58:33.417Z,3.22
2022-08-02T09:01:01.801Z,3.30
2022-08-02T09:03:33.861Z,3.25
2022-08-02T09:06:05.016Z,2.95
2022-08-02T09:08:35.303Z,2.22
2022-08-02T09:11:12.894Z,2.47
2022-08-02T09:13:52.508Z,2.55
2022-08-02T09:16:36.195Z,1.90
2022-08-02T09:19:20.345Z,1.80
2022-08-02T09:21:50.896Z,2.15
2022-08-02T09:24:21.895Z,1.70
2022-08-02T09:26:51.881Z,1.98
2022-08-02T09:29:24.262Z,1.50
2022-08-02T09:31:53.308Z,2.22
2022-08-02T09:34:22.605Z,1.85
2022-08-02T09:36:54.551Z,1.77
2022-08-02T09:39:26.330Z,2.17
2022-08-02T09:42:11.014Z,2.10
2022-08-02T09:44:39.551Z,1.83
2022-08-02T09:47:24.222Z,1.85
2022-08-02T09:50:15.190Z,1.90
2022-08-02T09:52:45.479Z,2.03
2022-08-02T09:55:43.561Z,2.17
2022-08-02T09:58:21.900Z,1.70
2022-08-02T10:00:59.016Z,1.88
2022-08-02T10:03:34.867Z,2.10
2022-08-02T10:06:04.465Z,2.10
2022-08-02T10:08:34.549Z,1.95
2022-08-02T10:11:03.514Z,2.15
2022-08-02T10:13:37.280Z,2.00
2022-08-02T10:16:08.526Z,2.00
2022-08-02T10:18:59.871Z,2.05
2022-08-02T10:21:37.999Z,2.10
2022-08-02T10:24:12.771Z,2.60
2022-08-02T10:26:46.198Z,1.98
2022-08-02T10:29:20.375Z,2.22
2022-08-02T10:32:00.126Z,2.00
2022-08-02T10:34:51.139Z,2.30
2022-08-02T10:37:32.684Z,1.80
2022-08-02T10:40:02.943Z,2.10
2022-08-02T10:42:49.049Z,2.50
2022-08-02T10:45:19.915Z,1.95
2022-08-02T10:48:03.933Z,1.83
2022-08-02T10:50:54.299Z,2.53
2022-08-02T10:53:25.064Z,2.08
2022-08-02T10:55:55.572Z,1.92
2022-08-02T10:58:29.665Z,2.15
2022-08-02T11:00:59.868Z,2.15
2022-08-02T11:03:42.279Z,2.53
2022-08-02T11:06:25.743Z,2.13
2022-08-02T11:09:32.027Z,2.35
2022-08-02T11:12:08.143Z,2.40
2022-08-02T11:14:39.234Z,2.10
2022-08-02T11:17:16.359Z,2.28
2022-08-02T11:20:18.965Z,2.35
2022-08-02T11:22:49.836Z,2.50
2022-08-02T11:26:03.360Z,2.28
2022-08-02T11:28:27.311Z,2.63
2022-08-02T11:31:00.247Z,2.17
2022-08-02T11:33:33.625Z,2.55
2022-08-02T11:36:04.564Z,2.70
2022-08-02T11:38:32.659Z,2.55
2022-08-02T11:41:09.419Z,2.53
2022-08-02T11:43:41.170Z,3.10
2022-08-02T11:46:19.754Z,2.53
2022-08-02T11:48:48.062Z,3.00
2022-08-02T11:51:20.755Z,2.63
2022-08-02T11:53:53.535Z,3.03
2022-08-02T11:56:32.659Z,3.13
2022-08-02T11:59:10.916Z,3.25
2022-08-02T12:01:52.218Z,3.47
2022-08-02T12:04:42.517Z,3.58
2022-08-02T12:07:12.471Z,3.78
2022-08-02T12:09:43.153Z,3.70
2022-08-02T12:12:20.181Z,3.90
2022-08-02T12:14:52.291Z,3.58
2022-08-02T12:17:42.414Z,3.78
2022-08-02T12:20:25.363Z,3.65
2022-08-02T12:23:17.055Z,3.78
2022-08-02T12:26:16.319Z,3.63
2022-08-02T12:28:48.955Z,3.35
2022-08-02T12:31:18.666Z,3.38
2022-08-02T12:33:50.472Z,3.03
2022-08-02T12:36:20.953Z,3.70
2022-08-02T12:39:18.434Z,2.80
2022-08-02T12:41:55.073Z,3.25
2022-08-02T12:44:23.407Z,2.72
2022-08-02T12:47:05.256Z,2.88
2022-08-02T12:49:34.274Z,2.58
2022-08-02T12:52:06.671Z,2.60
2022-08-02T12:54:41.975Z,2.50
2022-08-02T12:57:20.647Z,2.60
2022-08-02T12:59:54.476Z,2.60
2022-08-02T13:02:24.157Z,2.20
2022-08-02T13:04:52.320Z,2.35
2022-08-02T13:07:20.731Z,2.20
2022-08-02T13:09:50.096Z,2.30
2022-08-02T13:12:18.447Z,2.38
2022-08-02T13:14:46.659Z,2.13
2022-08-02T13:17:14.796Z,2.53
2022-08-02T13:19:44.328Z,2.40
2022-08-02T13:22:24.771Z,2.45
2022-08-02T13:24:57.193Z,2.20
2022-08-02T13:27:26.796Z,2.00
2022-08-02T13:29:56.718Z,2.25
2022-08-02T13:36:18.327Z,2.10
2022-08-02T13:38:46.584Z,1.90
2022-08-02T13:50:10.372Z,2.00
2022-08-02T13:52:39.925Z,2.45
2022-08-02T13:55:12.522Z,2.17
2022-08-02T13:57:41.409Z,2.25
2022-08-02T14:01:07.236Z,2.30
2022-08-02T14:04:08.508Z,1.92
2022-08-02T14:06:23.872Z,1.90
2022-08-02T14:08:54.252Z,2.10
2022-08-02T14:11:22.469Z,2.05
2022-08-02T14:13:51.311Z,2.15
2022-08-02T14:16:19.434Z,2.05
2022-08-02T14:18:47.553Z,2.25
2022-08-02T14:25:24.424Z,1.80
2022-08-02T14:27:52.489Z,1.80
2022-08-02T14:30:21.763Z,2.20
2022-08-02T14:32:49.848Z,2.05
2022-08-02T14:35:18.214Z,2.13
2022-08-02T14:37:46.569Z,2.35
2022-08-02T14:40:31.206Z,2.10
2022-08-02T14:43:01.846Z,2.00
2022-08-02T14:45:40.383Z,2.05
2022-08-02T14:48:12.153Z,1.90
2022-08-02T14:50:40.728Z,1.77
2022-08-02T14:53:26.908Z,1.92
2022-08-02T14:55:59.550Z,2.25
2022-08-02T14:58:38.924Z,1.95
2022-08-02T15:01:08.831Z,2.08
2022-08-02T15:03:43.645Z,2.20
2022-08-02T15:06:38.597Z,2.03
2022-08-02T15:09:06.837Z,2.00
2022-08-02T15:11:46.952Z,2.10
2022-08-02T15:14:22.216Z,2.00
2022-08-02T15:16:57.624Z,1.90
2022-08-02T15:19:56.038Z,2.00
2022-08-02T15:22:38.145Z,1.80
2022-08-02T15:25:14.566Z,2.00
2022-08-02T15:27:44.998Z,1.70
2022-08-02T15:30:15.198Z,1.65
2022-08-02T15:32:53.379Z,1.92
2022-08-02T15:35:22.234Z,1.75
2022-08-02T15:37:50.499Z,2.03
2022-08-02T15:40:18.769Z,2.22
2022-08-02T15:42:47.070Z,1.60
2022-08-02T15:45:17.657Z,1.80
2022-08-02T15:47:47.833Z,1.88
2022-08-02T15:50:16.696Z,1.88
2022-08-02T15:52:45.025Z,1.90
2022-08-02T15:58:26.817Z,1.85
2022-08-02T16:01:00.216Z,1.90
2022-08-02T16:03:48.840Z,1.98
2022-08-02T16:06:20.008Z,1.60
2022-08-02T16:10:01.519Z,1.98
2022-08-02T16:16:12.476Z,1.90
2022-08-02T16:18:40.510Z,1.77
2022-08-02T16:21:13.410Z,1.75
2022-08-02T16:24:01.441Z,2.00
2022-08-02T16:26:31.346Z,1.60
2022-08-02T16:29:01.225Z,1.77
2022-08-02T16:31:31.883Z,2.20
2022-08-02T16:34:00.173Z,1.88
2022-08-02T16:36:29.355Z,1.92
2022-08-02T16:38:58.227Z,1.65
2022-08-02T16:41:51.830Z,1.70
2022-08-02T16:44:15.186Z,1.90
2022-08-02T16:46:47.179Z,1.80
2022-08-02T16:50:04.866Z,2.10
2022-08-02T16:52:07.330Z,1.70
2022-08-02T16:54:38.446Z,1.67
2022-08-02T16:57:07.475Z,1.77
2022-08-02T16:59:41.412Z,1.65
2022-08-02T17:02:18.475Z,1.70
2022-08-02T17:04:48.430Z,1.42
2022-08-02T17:08:08.157Z,1.63
2022-08-02T17:10:09.201Z,1.60
2022-08-02T17:12:38.924Z,1.63
2022-08-02T17:16:01.089Z,1.80
2022-08-02T17:17:58.360Z,1.83
2022-08-02T17:20:26.470Z,1.60
2022-08-02T17:22:54.727Z,1.80
2022-08-02T17:25:24.827Z,1.85
2022-08-02T17:27:56.035Z,1.80
2022-08-02T17:30:26.997Z,1.90
2022-08-02T17:32:57.490Z,1.80
2022-08-02T17:35:39.988Z,1.80
2022-08-02T17:38:11.955Z,1.80
2022-08-02T17:40:48.682Z,1.80
2022-08-02T17:43:18.182Z,1.98
2022-08-02T17:46:00.958Z,1.90
2022-08-02T17:48:55.322Z,1.40
2022-08-02T17:52:15.514Z,1.67
2022-08-02T17:54:14.884Z,2.08
2022-08-02T17:56:48.081Z,1.92
2022-08-02T17:59:20.228Z,1.63
2022-08-02T18:01:53.016Z,1.75
2022-08-02T18:04:27.558Z,2.00
2022-08-02T18:07:04.192Z,1.70
2022-08-02T18:09:34.602Z,1.73
2022-08-02T18:12:02.728Z,1.58
2022-08-02T18:14:30.697Z,1.60
2022-08-02T18:16:58.858Z,1.73
2022-08-02T18:19:42.629Z,1.65
2022-08-02T18:22:16.860Z,1.45
2022-08-02T18:24:45.519Z,1.45
2022-08-02T18:27:18.292Z,1.70
2022-08-02T18:29:48.544Z,1.70
2022-08-02T18:33:53.951Z,1.50
2022-08-02T18:35:19.103Z,1.60
2022-08-02T18:37:57.023Z,1.40
2022-08-02T18:40:31.183Z,1.70
2022-08-02T18:43:03.483Z,1.63
2022-08-02T18:45:49.544Z,1.73
2022-08-02T18:48:23.721Z,1.40
2022-08-02T18:50:57.930Z,1.50
2022-08-02T18:53:28.230Z,1.30
2022-08-02T18:56:20.071Z,1.30
2022-08-02T18:58:53.134Z,1.38
2022-08-02T19:01:32.469Z,1.70
2022-08-02T19:04:04.329Z,1.40
2022-08-02T19:06:33.121Z,1.40
2022-08-02T19:09:11.407Z,1.50
2022-08-02T19:11:47.564Z,1.40
2022-08-02T19:14:30.957Z,1.65
2022-08-02T19:17:00.495Z,1.40
2022-08-02T19:19:44.423Z,1.50
2022-08-02T19:22:18.710Z,1.60
2022-08-02T19:24:51.636Z,1.20
2022-08-02T19:27:25.664Z,1.50
2022-08-02T19:29:55.020Z,1.30
2022-08-02T19:32:42.157Z,1.75
2022-08-02T19:35:19.365Z,1.60
2022-08-02T19:38:07.648Z,1.27
2022-08-02T19:40:41.657Z,1.50
2022-08-02T19:44:24.508Z,1.40
2022-08-02T19:45:59.294Z,1.20
2022-08-02T19:48:28.069Z,1.58
2022-08-02T19:51:01.063Z,1.58
2022-08-02T19:53:47.460Z,1.75
2022-08-02T19:56:25.042Z,1.40
2022-08-02T19:58:54.889Z,1.60
2022-08-02T20:01:36.571Z,1.40
2022-08-02T20:04:06.990Z,1.30
2022-08-02T20:06:35.365Z,1.35
2022-08-02T20:09:04.082Z,1.50
2022-08-02T20:11:34.726Z,1.70
2022-08-02T20:14:04.863Z,1.25
2022-08-02T20:16:33.384Z,1.40
2022-08-02T20:19:03.396Z,1.40
2022-08-02T20:21:35.919Z,1.40
2022-08-02T20:24:09.165Z,1.50
2022-08-02T20:26:47.705Z,1.40
2022-08-02T20:29:43.416Z,1.55
2022-08-02T20:32:07.889Z,1.50
2022-08-02T20:34:36.781Z,1.45
2022-08-02T20:37:59.089Z,1.45
2022-08-02T20:39:53.961Z,1.52
2022-08-02T20:42:24.640Z,1.30
2022-08-02T20:44:55.059Z,1.38
2022-08-02T20:47:38.880Z,1.58
2022-08-02T20:50:31.396Z,1.40
2022-08-02T20:53:00.639Z,1.58
2022-08-02T20:55:31.245Z,1.58
2022-08-02T20:58:02.684Z,1.50
2022-08-02T21:00:31.687Z,1.80
2022-08-02T21:03:00.439Z,1.60
2022-08-02T21:05:54.318Z,1.52
2022-08-02T21:08:20.310Z,1.70
2022-08-02T21:10:52.732Z,1.80
2022-08-02T21:13:24.397Z,1.55
2022-08-02T21:15:57.007Z,1.90
2022-08-02T21:18:35.909Z,1.83
2022-08-02T21:21:09.129Z,1.85
2022-08-02T21:23:37.566Z,1.77
2022-08-02T21:26:06.709Z,1.77
2022-08-02T21:28:45.088Z,2.15
2022-08-02T21:34:03.702Z,1.92
2022-08-02T21:36:50.693Z,1.95
2022-08-02T21:39:20.393Z,1.77
2022-08-02T21:41:49.114Z,1.55
2022-08-02T21:44:20.800Z,1.75
2022-08-02T21:46:51.147Z,1.70
2022-08-02T21:49:20.683Z,1.70
2022-08-02T21:51:50.308Z,1.60
2022-08-02T21:54:21.223Z,1.60
2022-08-02T21:56:52.758Z,1.70
2022-08-02T21:59:41.735Z,1.88
2022-08-02T22:02:14.028Z,1.90
2022-08-02T22:04:47.485Z,2.17
2022-08-02T22:07:24.038Z,1.70
2022-08-02T22:09:52.886Z,1.83
2022-08-02T22:12:21.914Z,1.98
2022-08-02T22:14:56.537Z,2.50
2022-08-02T22:17:50.737Z,1.98
2022-08-02T22:20:18.378Z,2.17
2022-08-02T22:22:50.765Z,2.42
2022-08-02T22:25:26.546Z,2.35
2022-08-02T22:28:35.977Z,2.20
2022-08-02T22:34:01.845Z,2.50
2022-08-02T22:36:34.048Z,2.35
2022-08-02T22:39:04.646Z,2.22
2022-08-02T22:42:05.899Z,2.40
2022-08-02T22:44:36.553Z,2.45
2022-08-02T22:47:14.443Z,2.30
2022-08-02T22:49:54.531Z,1.88
2022-08-02T22:52:24.518Z,2.50
2022-08-02T22:54:52.532Z,2.33
2022-08-02T22:57:30.836Z,2.10
2022-08-02T22:59:02.910Z,1.77
2022-08-02T22:59:04.977Z,2.67
2022-08-02T23:00:00.402Z,2.47
2022-08-02T23:02:30.298Z,2.50
2022-08-02T23:04:58.605Z,2.78
2022-08-02T23:07:26.774Z,2.95
2022-08-02T23:09:54.799Z,2.60
2022-08-02T23:12:23.205Z,2.58
2022-08-02T23:14:53.425Z,2.50
2022-08-02T23:17:39.540Z,2.78
2022-08-02T23:20:11.707Z,2.38
2022-08-02T23:22:39.921Z,2.50
2022-08-02T23:25:09.407Z,2.30
2022-08-02T23:27:37.591Z,2.53
2022-08-02T23:30:08.064Z,2.40
2022-08-02T23:32:36.001Z,2.50
2022-08-02T23:35:05.877Z,2.65
2022-08-02T23:37:59.759Z,2.70
2022-08-02T23:40:39.394Z,2.80
2022-08-02T23:43:13.432Z,2.88
2022-08-02T23:45:44.843Z,2.80
2022-08-02T23:48:12.798Z,2.42
2022-08-02T23:50:41.017Z,3.05
2022-08-02T23:53:10.302Z,2.50
2022-08-02T23:55:38.243Z,2.70
2022-08-02T23:58:06.180Z,2.80
